createdAt,value
2022-12-09T00:01:23.724Z,9.90
2022-12-09T00:04:26.572Z,10.80
2022-12-09T00:07:29.523Z,9.90
2022-12-09T00:10:32.436Z,11.02
2022-12-09T00:13:36.041Z,12.25
2022-12-09T00:16:40.167Z,11.20
2022-12-09T00:19:43.943Z,10.53
2022-12-09T00:22:46.574Z,10.45
2022-12-09T00:25:49.328Z,9.05
2022-12-09T00:28:53.259Z,9.23
2022-12-09T00:31:56.178Z,10.33
2022-12-09T00:34:58.924Z,9.93
2022-12-09T00:38:01.908Z,9.88
2022-12-09T00:41:05.670Z,10.45
2022-12-09T00:44:08.451Z,11.25
2022-12-09T00:47:11.571Z,10.40
2022-12-09T00:50:14.536Z,10.67
2022-12-09T00:53:17.451Z,11.40
2022-12-09T00:56:24.830Z,9.80
2022-12-09T00:59:28.232Z,10.55
2022-12-09T01:02:31.319Z,11.90
2022-12-09T01:05:40.362Z,10.73
2022-12-09T01:08:43.721Z,10.60
2022-12-09T01:11:47.473Z,11.30
2022-12-09T01:14:50.098Z,8.82
2022-12-09T01:17:53.168Z,9.87
2022-12-09T01:20:59.792Z,10.43
2022-12-09T01:24:07.514Z,10.60
2022-12-09T01:27:10.410Z,11.55
2022-12-09T01:30:14.624Z,9.90
2022-12-09T01:33:17.437Z,10.57
2022-12-09T01:36:23.948Z,9.80
2022-12-09T01:39:26.880Z,9.90
2022-12-09T01:42:29.676Z,9.32
2022-12-09T01:45:40.154Z,8.80
2022-12-09T01:48:46.462Z,12.13
2022-12-09T01:52:01.526Z,11.10
2022-12-09T01:55:04.736Z,8.82
2022-12-09T01:58:08.237Z,10.88
2022-12-09T02:01:11.601Z,8.90
2022-12-09T02:04:15.044Z,10.37
2022-12-09T02:07:19.279Z,10.87
2022-12-09T02:10:23.271Z,10.70
2022-12-09T02:14:02.482Z,11.65
2022-12-09T02:17:46.350Z,10.30
2022-12-09T02:21:12.452Z,11.03
2022-12-09T02:24:22.448Z,10.53
2022-12-09T02:27:34.595Z,11.45
2022-12-09T02:31:00.696Z,10.52
2022-12-09T02:34:29.598Z,10.52
2022-12-09T02:38:01.135Z,9.63
2022-12-09T02:41:20.222Z,12.03
2022-12-09T02:44:26.005Z,12.00
2022-12-09T02:47:33.342Z,10.98
2022-12-09T02:50:39.444Z,13.15
2022-12-09T02:53:44.653Z,11.17
2022-12-09T02:56:57.073Z,10.97
2022-12-09T03:00:02.718Z,10.55
2022-12-09T03:03:09.643Z,12.40
2022-12-09T03:06:16.831Z,10.05
2022-12-09T03:09:29.490Z,11.53
2022-12-09T03:12:34.921Z,10.47
2022-12-09T03:15:40.003Z,14.88
2022-12-09T03:18:47.930Z,14.43
2022-12-09T03:21:54.669Z,13.32
2022-12-09T03:25:13.461Z,11.77
2022-12-09T03:28:18.927Z,11.53
2022-12-09T03:31:26.405Z,10.55
2022-12-09T03:34:33.474Z,11.95
2022-12-09T03:37:39.346Z,12.85
2022-12-09T03:40:43.945Z,11.80
2022-12-09T03:43:53.651Z,12.53
2022-12-09T03:46:57.354Z,11.95
2022-12-09T03:50:00.720Z,11.15
2022-12-09T03:53:09.514Z,11.90
2022-12-09T03:56:23.167Z,11.77
2022-12-09T03:59:29.585Z,11.63
2022-12-09T04:02:32.425Z,11.50
2022-12-09T04:05:35.201Z,11.15
2022-12-09T04:08:38.133Z,13.13
2022-12-09T04:11:41.397Z,11.73
2022-12-09T04:14:44.438Z,12.03
2022-12-09T04:17:47.606Z,10.73
2022-12-09T04:20:50.627Z,11.63
2022-12-09T04:23:53.354Z,11.20
2022-12-09T04:26:56.071Z,11.03
2022-12-09T04:29:58.952Z,13.37
2022-12-09T04:33:02.215Z,12.13
2022-12-09T04:36:11.060Z,11.70
2022-12-09T04:39:14.066Z,11.73
2022-12-09T04:42:17.010Z,12.37
2022-12-09T04:45:20.214Z,12.53
2022-12-09T04:48:24.336Z,13.80
2022-12-09T04:51:27.134Z,12.23
2022-12-09T04:54:29.862Z,12.98
2022-12-09T04:57:32.624Z,12.20
2022-12-09T05:00:35.563Z,13.17
2022-12-09T05:03:39.343Z,10.32
2022-12-09T05:06:42.545Z,11.95
2022-12-09T05:09:45.827Z,13.43
2022-12-09T05:12:50.247Z,12.83
2022-12-09T05:16:01.345Z,12.73
2022-12-09T05:19:04.696Z,12.88
2022-12-09T05:22:07.999Z,12.18
2022-12-09T05:25:10.920Z,13.18
2022-12-09T05:28:13.943Z,11.47
2022-12-09T05:31:19.967Z,11.80
2022-12-09T05:34:23.510Z,12.88
2022-12-09T05:37:26.832Z,12.05
2022-12-09T05:40:29.790Z,12.32
2022-12-09T05:43:33.429Z,11.77
2022-12-09T05:46:36.277Z,12.23
2022-12-09T05:49:39.966Z,12.13
2022-12-09T05:52:43.284Z,10.35
2022-12-09T05:55:46.429Z,11.07
2022-12-09T05:58:50.391Z,11.37
2022-12-09T06:01:55.107Z,10.90
2022-12-09T06:04:58.008Z,10.95
2022-12-09T06:08:06.476Z,11.80
2022-12-09T06:14:41.601Z,11.03
2022-12-09T06:17:44.701Z,10.27
2022-12-09T06:20:47.981Z,10.82
2022-12-09T06:23:51.548Z,10.57
2022-12-09T06:26:55.053Z,9.82
2022-12-09T06:29:58.444Z,10.90
2022-12-09T06:33:01.444Z,10.40
2022-12-09T06:36:05.406Z,9.77
2022-12-09T06:39:11.124Z,10.95
2022-12-09T06:42:14.445Z,10.63
2022-12-09T06:45:18.699Z,9.20
2022-12-09T06:48:21.662Z,10.30
2022-12-09T06:51:26.036Z,11.07
2022-12-09T06:54:29.194Z,10.27
2022-12-09T06:57:32.305Z,10.65
2022-12-09T07:00:36.867Z,9.63
2022-12-09T07:03:50.272Z,10.73
2022-12-09T07:07:02.320Z,11.00
2022-12-09T07:13:27.630Z,9.30
2022-12-09T07:16:31.265Z,10.87
2022-12-09T07:19:34.576Z,9.77
2022-12-09T07:22:43.152Z,10.07
2022-12-09T07:25:56.652Z,10.52
2022-12-09T07:29:03.813Z,9.30
2022-12-09T07:32:09.900Z,11.33
2022-12-09T07:35:13.492Z,11.77
2022-12-09T07:38:17.029Z,10.07
2022-12-09T07:41:20.449Z,11.32
2022-12-09T07:44:28.470Z,11.45
2022-12-09T07:47:34.203Z,10.97
2022-12-09T07:50:39.563Z,10.80
2022-12-09T07:53:42.521Z,10.50
2022-12-09T07:56:46.273Z,12.75
2022-12-09T07:59:49.367Z,9.80
2022-12-09T08:02:53.869Z,10.53
2022-12-09T08:05:56.999Z,11.40
2022-12-09T08:09:02.259Z,11.85
2022-12-09T08:12:06.186Z,13.48
2022-12-09T08:15:09.705Z,16.77
2022-12-09T08:18:12.896Z,15.90
2022-12-09T08:21:18.938Z,14.13
2022-12-09T08:24:22.141Z,12.77
2022-12-09T08:27:24.931Z,13.82
2022-12-09T08:30:27.997Z,11.15
2022-12-09T08:33:35.654Z,13.83
2022-12-09T08:36:42.408Z,13.83
2022-12-09T08:39:45.559Z,13.07
2022-12-09T08:42:48.435Z,15.35
2022-12-09T08:45:51.640Z,16.42
2022-12-09T08:48:54.769Z,12.93
2022-12-09T08:51:58.279Z,13.73
2022-12-09T08:55:13.996Z,11.95
2022-12-09T08:58:21.977Z,15.40
2022-12-09T09:01:36.058Z,15.30
2022-12-09T09:04:40.074Z,12.80
2022-12-09T09:07:43.839Z,18.30
2022-12-09T09:10:47.646Z,12.82
2022-12-09T09:13:54.577Z,15.55
2022-12-09T09:16:57.843Z,13.25
2022-12-09T09:20:01.236Z,14.23
2022-12-09T09:23:04.445Z,14.97
2022-12-09T09:26:12.454Z,16.65
2022-12-09T09:29:18.945Z,13.00
2022-12-09T09:32:22.259Z,15.70
2022-12-09T09:35:26.016Z,20.17
2022-12-09T09:38:32.019Z,13.23
2022-12-09T09:41:40.928Z,14.65
2022-12-09T09:44:47.007Z,15.02
2022-12-09T09:47:55.267Z,14.55
2022-12-09T09:51:24.237Z,12.97
2022-12-09T09:54:27.435Z,14.30
2022-12-09T09:57:43.786Z,18.60
2022-12-09T10:00:55.785Z,15.55
2022-12-09T10:04:11.177Z,17.17
2022-12-09T10:07:29.074Z,15.10
2022-12-09T10:10:50.580Z,15.90
2022-12-09T10:14:24.206Z,15.07
2022-12-09T10:17:52.479Z,16.50
2022-12-09T10:20:55.752Z,15.45
2022-12-09T10:24:30.881Z,16.80
2022-12-09T10:27:47.931Z,17.23
2022-12-09T10:30:52.872Z,17.27
2022-12-09T10:33:57.724Z,14.07
2022-12-09T10:37:01.122Z,16.98
2022-12-09T10:40:12.125Z,14.57
2022-12-09T10:43:37.503Z,15.33
2022-12-09T10:46:41.072Z,19.17
2022-12-09T10:49:44.207Z,16.77
2022-12-09T10:52:47.401Z,16.05
2022-12-09T10:55:53.268Z,17.07
2022-12-09T10:59:23.266Z,17.73
2022-12-09T11:02:27.266Z,18.17
2022-12-09T11:05:34.020Z,17.10
2022-12-09T11:08:40.803Z,18.35
2022-12-09T11:11:50.635Z,16.70
2022-12-09T11:14:57.070Z,20.93
2022-12-09T11:18:09.592Z,19.35
2022-12-09T11:21:33.325Z,21.13
2022-12-09T11:24:37.231Z,20.83
2022-12-09T11:27:48.113Z,20.50
2022-12-09T11:31:33.486Z,16.83
2022-12-09T11:34:37.859Z,22.73
2022-12-09T11:37:41.243Z,19.42
2022-12-09T11:41:15.109Z,20.27
2022-12-09T11:44:32.960Z,19.67
2022-12-09T11:48:21.505Z,20.53
2022-12-09T11:51:05.534Z,23.98
2022-12-09T11:54:16.762Z,18.88
2022-12-09T11:57:33.190Z,19.98
2022-12-09T12:00:59.688Z,18.20
2022-12-09T12:04:09.539Z,19.80
2022-12-09T12:07:21.872Z,21.83
2022-12-09T12:10:30.086Z,19.13
2022-12-09T12:13:54.766Z,19.02
2022-12-09T12:17:28.574Z,19.43
2022-12-09T12:20:50.504Z,19.67
2022-12-09T12:24:14.897Z,22.00
2022-12-09T12:27:26.555Z,21.73
2022-12-09T12:30:41.200Z,23.08
2022-12-09T12:37:40.052Z,21.23
2022-12-09T12:41:03.924Z,22.60
2022-12-09T12:44:53.260Z,21.08
2022-12-09T12:48:08.358Z,23.50
2022-12-09T12:51:38.155Z,22.77
2022-12-09T12:54:57.008Z,23.23
2022-12-09T12:58:25.803Z,25.73
2022-12-09T13:01:39.066Z,24.40
2022-12-09T13:05:00.431Z,24.20
2022-12-09T13:08:37.135Z,25.53
2022-12-09T13:11:55.853Z,22.37
2022-12-09T13:15:00.447Z,27.13
2022-12-09T13:18:11.388Z,24.48
2022-12-09T13:21:14.927Z,27.23
2022-12-09T13:24:27.093Z,27.70
2022-12-09T13:28:00.492Z,24.27
2022-12-09T13:31:09.533Z,27.05
2022-12-09T13:34:27.346Z,25.42
2022-12-09T13:37:42.192Z,26.83
2022-12-09T13:40:45.109Z,25.17
2022-12-09T13:43:48.054Z,25.17
2022-12-09T13:46:50.804Z,24.23
2022-12-09T13:50:06.496Z,26.48
2022-12-09T13:53:21.548Z,25.35
2022-12-09T13:56:27.551Z,23.37
2022-12-09T13:59:40.842Z,23.00
2022-12-09T14:03:02.643Z,26.15
2022-12-09T14:06:20.591Z,25.13
2022-12-09T14:09:35.109Z,26.63
2022-12-09T14:12:58.035Z,27.93
2022-12-09T14:16:28.666Z,27.77
2022-12-09T14:19:33.689Z,28.02
2022-12-09T14:22:39.124Z,27.63
2022-12-09T14:25:51.327Z,27.80
2022-12-09T14:28:56.239Z,27.20
2022-12-09T14:32:03.439Z,31.80
2022-12-09T14:35:12.184Z,25.85
2022-12-09T14:38:27.461Z,26.17
2022-12-09T14:41:39.691Z,26.27
2022-12-09T14:44:51.615Z,28.93
2022-12-09T14:47:54.505Z,27.37
2022-12-09T14:51:19.912Z,26.45
2022-12-09T14:54:27.204Z,29.48
2022-12-09T14:57:38.672Z,28.50
2022-12-09T15:00:42.047Z,27.97
2022-12-09T15:03:57.590Z,25.27
2022-12-09T15:07:22.752Z,27.25
2022-12-09T15:10:34.641Z,29.58
2022-12-09T15:13:40.955Z,26.35
2022-12-09T15:16:47.737Z,25.80
2022-12-09T15:20:01.835Z,25.30
2022-12-09T15:23:32.606Z,25.40
2022-12-09T15:26:38.281Z,21.58
2022-12-09T15:29:41.119Z,25.42
2022-12-09T15:32:45.055Z,24.00
2022-12-09T15:36:02.251Z,25.57
2022-12-09T15:39:10.543Z,25.25
2022-12-09T15:42:18.320Z,26.17
2022-12-09T15:45:24.904Z,21.65
2022-12-09T15:48:35.289Z,24.37
2022-12-09T15:51:42.460Z,24.20
2022-12-09T15:54:46.159Z,23.45
2022-12-09T15:57:51.683Z,23.45
2022-12-09T16:00:55.408Z,20.63
2022-12-09T16:04:01.331Z,22.47
2022-12-09T16:07:09.833Z,26.10
2022-12-09T16:10:16.555Z,25.10
2022-12-09T16:13:21.808Z,23.63
2022-12-09T16:16:31.064Z,19.73
2022-12-09T16:19:37.207Z,24.17
2022-12-09T16:22:49.567Z,19.90
2022-12-09T16:26:06.600Z,23.77
2022-12-09T16:29:34.820Z,24.27
2022-12-09T16:32:58.986Z,23.92
2022-12-09T16:36:05.882Z,25.23
2022-12-09T16:39:15.164Z,24.13
2022-12-09T16:42:23.834Z,24.92
2022-12-09T16:45:38.325Z,23.13
2022-12-09T16:48:43.173Z,23.02
2022-12-09T16:51:46.791Z,22.13
2022-12-09T16:54:51.303Z,20.23
2022-12-09T16:57:56.572Z,21.30
2022-12-09T17:01:06.090Z,23.38
2022-12-09T17:04:30.035Z,21.38
2022-12-09T17:07:33.855Z,22.97
2022-12-09T17:10:38.915Z,20.10
2022-12-09T17:13:42.623Z,22.58
2022-12-09T17:16:47.916Z,22.33
2022-12-09T17:19:52.045Z,21.33
2022-12-09T17:22:56.016Z,21.90
2022-12-09T17:26:01.771Z,20.17
2022-12-09T17:29:07.703Z,21.65
2022-12-09T17:32:10.927Z,22.38
2022-12-09T17:35:16.243Z,24.20
2022-12-09T17:38:20.902Z,21.07
2022-12-09T17:41:31.354Z,23.07
2022-12-09T17:44:35.482Z,22.02
2022-12-09T17:47:39.149Z,21.27
2022-12-09T17:50:42.986Z,19.35
2022-12-09T17:53:47.584Z,21.80
2022-12-09T17:56:50.268Z,22.83
2022-12-09T17:59:53.667Z,21.30
2022-12-09T18:02:56.538Z,21.23
2022-12-09T18:06:00.128Z,23.48
2022-12-09T18:09:06.520Z,21.97
2022-12-09T18:12:10.875Z,21.20
2022-12-09T18:15:13.926Z,19.55
2022-12-09T18:18:17.261Z,20.58
2022-12-09T18:21:21.865Z,24.45
2022-12-09T18:24:25.223Z,20.07
2022-12-09T18:27:28.392Z,19.93
2022-12-09T18:30:31.438Z,20.90
2022-12-09T18:33:35.437Z,20.80
2022-12-09T18:36:38.340Z,20.33
2022-12-09T18:39:42.333Z,21.70
2022-12-09T18:42:45.866Z,20.23
2022-12-09T18:45:50.394Z,20.38
2022-12-09T18:49:21.169Z,23.70
2022-12-09T18:52:24.950Z,20.65
2022-12-09T18:55:27.976Z,23.80
2022-12-09T18:58:57.413Z,21.70
2022-12-09T19:01:55.315Z,19.75
2022-12-09T19:04:59.058Z,20.13
2022-12-09T19:08:04.939Z,29.52
2022-12-09T19:11:08.770Z,21.97
2022-12-09T19:14:14.600Z,18.87
2022-12-09T19:17:19.059Z,22.35
2022-12-09T19:20:23.721Z,19.65
2022-12-09T19:23:27.774Z,21.73
2022-12-09T19:26:32.983Z,19.63
2022-12-09T19:29:37.232Z,20.33
2022-12-09T19:32:57.212Z,20.75
2022-12-09T19:36:05.012Z,18.15
2022-12-09T19:39:11.482Z,19.50
2022-12-09T19:42:15.312Z,20.00
2022-12-09T19:45:23.565Z,21.07
2022-12-09T19:48:34.688Z,19.42
2022-12-09T19:51:38.846Z,18.23
2022-12-09T19:54:42.277Z,18.77
2022-12-09T19:57:46.026Z,19.63
2022-12-09T20:00:49.950Z,20.30
2022-12-09T20:04:05.230Z,19.20
2022-12-09T20:07:12.964Z,19.38
2022-12-09T20:10:16.507Z,19.45
2022-12-09T20:13:20.124Z,19.93
2022-12-09T20:16:25.099Z,18.77
2022-12-09T20:19:29.087Z,17.27
2022-12-09T20:22:35.544Z,19.52
2022-12-09T20:25:40.954Z,19.27
2022-12-09T20:28:46.982Z,18.40
2022-12-09T20:31:50.892Z,18.47
2022-12-09T20:34:56.319Z,17.73
2022-12-09T20:38:00.813Z,18.92
2022-12-09T20:41:10.503Z,18.02
2022-12-09T20:44:15.288Z,17.80
2022-12-09T20:47:20.761Z,16.93
2022-12-09T20:50:24.596Z,18.27
2022-12-09T20:53:30.689Z,17.23
2022-12-09T20:56:35.683Z,18.92
2022-12-09T20:59:39.035Z,18.50
2022-12-09T21:02:42.455Z,17.57
2022-12-09T21:05:45.963Z,17.65
2022-12-09T21:08:50.205Z,17.65
2022-12-09T21:11:54.821Z,18.88
2022-12-09T21:14:58.684Z,16.90
2022-12-09T21:18:02.333Z,15.63
2022-12-09T21:21:12.941Z,17.42
2022-12-09T21:24:17.041Z,17.40
2022-12-09T21:27:20.791Z,17.02
2022-12-09T21:30:27.928Z,16.87
2022-12-09T21:33:31.630Z,17.13
2022-12-09T21:36:38.049Z,17.25
2022-12-09T21:39:41.528Z,18.15
2022-12-09T21:42:45.207Z,17.42
2022-12-09T21:45:49.798Z,17.00
2022-12-09T21:48:58.582Z,18.03
2022-12-09T21:52:06.817Z,17.42
2022-12-09T21:55:09.976Z,17.83
2022-12-09T21:58:12.876Z,16.15
2022-12-09T22:01:27.959Z,16.67
2022-12-09T22:04:30.667Z,19.27
2022-12-09T22:07:33.750Z,17.25
2022-12-09T22:10:38.144Z,17.80
2022-12-09T22:13:41.181Z,16.95
2022-12-09T22:16:46.064Z,18.53
2022-12-09T22:20:00.510Z,17.63
2022-12-09T22:23:11.720Z,18.55
2022-12-09T22:26:17.916Z,15.65
2022-12-09T22:29:20.553Z,16.67
2022-12-09T22:32:23.804Z,15.20
2022-12-09T22:35:26.475Z,16.03
2022-12-09T22:38:30.063Z,17.50
2022-12-09T22:41:34.193Z,15.82
2022-12-09T22:44:36.967Z,16.83
2022-12-09T22:47:40.081Z,16.83
2022-12-09T22:50:42.745Z,17.07
2022-12-09T22:53:47.415Z,15.52
2022-12-09T22:56:50.816Z,15.35
2022-12-09T22:59:54.595Z,15.23
2022-12-09T23:02:57.519Z,18.47
2022-12-09T23:06:01.626Z,18.00
2022-12-09T23:09:05.900Z,16.33
2022-12-09T23:12:08.603Z,16.52
2022-12-09T23:15:11.288Z,17.70
2022-12-09T23:18:13.991Z,15.10
2022-12-09T23:21:23.728Z,16.97
2022-12-09T23:24:26.341Z,17.70
2022-12-09T23:27:29.098Z,15.30
2022-12-09T23:30:31.852Z,16.00
2022-12-09T23:33:35.116Z,16.40
2022-12-09T23:36:40.240Z,15.40
2022-12-09T23:39:43.327Z,16.92
2022-12-09T23:42:46.090Z,15.10
2022-12-09T23:45:48.904Z,14.15
2022-12-09T23:48:53.646Z,14.17
2022-12-09T23:51:56.479Z,15.93
2022-12-09T23:55:04.076Z,15.80
2022-12-09T23:58:07.284Z,15.05
